General Electric Price to Book Ratio 2010-2023 | GE

Historical price to book ratio values for General Electric (GE) over the last 10 years. The current price to book ratio for General Electric as of November 28, 2023 is 4.38.

Please refer to the Stock Price Adjustment Guide for more information on our historical prices.

General Electric Price/Book Ratio Historical Data
Date Stock Price Book Value per Share Price to Book Ratio
2023-11-28 118.85 4.34
2023-09-30 110.55 $27.41 4.03
2023-06-30 109.69 $29.74 3.69
2023-03-31 95.46 $30.14 3.17
2022-12-31 83.59 $32.06 2.61
2022-09-30 61.70 $29.98 2.06
2022-06-30 63.38 $32.78 1.93
2022-03-31 90.97 $36.59 2.49
2021-12-31 93.84 $37.86 2.48
2021-09-30 102.25 $35.48 2.88
2021-06-30 106.78 $31.93 3.34
2021-03-31 104.08 $32.04 3.25
2020-12-31 85.55 $33.84 2.53
2020-09-30 49.30 $31.77 1.55
2020-06-30 53.97 $32.22 1.67
2020-03-31 62.64 $33.71 1.86
2019-12-31 87.95 $27.34 3.22
2019-09-30 70.39 $26.72 2.63
2019-06-30 82.58 $51.45 1.61
2019-03-31 78.50 $51.05 1.54
2018-12-31 57.30 $47.33 1.21
2018-09-30 85.35 $44.00 1.94
2018-06-30 101.93 $66.05 1.54
2018-03-31 100.05 $67.42 1.48
2017-12-31 128.45 $67.74 1.90
2017-09-30 176.78 $86.76 2.04
2017-06-30 195.50 $70.02 2.79
2017-03-31 213.92 $70.17 3.05
2016-12-31 225.05 $70.91 3.17
2016-09-30 209.37 $75.55 2.77
2016-06-30 220.81 $77.39 2.85
2016-03-31 221.32 $80.69 2.74
2015-12-31 215.17 $85.41 2.52
2015-09-30 172.91 $94.96 1.82
2015-06-30 180.53 $93.72 1.93
2015-03-31 167.16 $93.13 1.79
2014-12-31 168.71 $108.84 1.55
2014-09-30 169.50 $114.33 1.48
2014-06-30 172.42 $111.68 1.54
2014-03-31 168.48 $110.11 1.53
2013-12-31 180.82 $108.76 1.66
2013-09-30 152.88 $102.04 1.50
2013-06-30 147.26 $101.19 1.46
2013-03-31 145.63 $99.84 1.46
2012-12-31 131.14 $98.77 1.33
2012-09-30 140.62 $97.66 1.44
2012-06-30 128.07 $93.87 1.36
2012-03-31 122.27 $91.87 1.33
2011-12-31 108.16 $89.39 1.21
2011-09-30 91.06 $96.06 0.95
2011-06-30 111.79 $98.41 1.14
2011-03-31 117.89 $94.89 1.24
2010-12-31 106.81 $93.60 1.14
2010-09-30 94.17 $90.56 1.04
2010-06-30 82.95 $90.34 0.92
2010-03-31 104.04 $92.13 1.13
2009-12-31 85.95 $93.88 0.92
2009-09-30 92.68 $94.53 0.98
2009-06-30 65.75 $90.68 0.73
2009-03-31 56.25 $82.70 0.68
Sector Industry Market Cap Revenue
Multi-Sector Conglomerates Diversified Operations $130.683B $76.555B
General Electric Co. is popular for its LEAP aircraft engines, heavy-duty gas turbines, Haliade-X and Cypress wind turbines, and healthcare solutions. Its products and services range from jet engines, airframes, energy production solutions to offshore wind turbines, technologies in medical imaging, and leasing and financing services, etc. It has the following operating segments: Power produces steam & gas turbines, power generation services, and generators. The Power segment includes Gas Power and Power Portfolio. While Gas Power includes GE's gas lifecycle business, Power Portfolio comprises Steam Power Systems, GE Hitachi Nuclear and Power Conversion businesses. Aviation offers commercial jet engines and components, and aftermarket services. Healthcare provides technologies in patient monitoring, medical imaging, drug discovery, patient monitoring. Renewable Energy provides offshore wind turbines, high-voltage equipment, blades for wind turbines (onshore and offshore), and other products and services.
Stock Name Country Market Cap PE Ratio
Danaher (DHR) United States $155.936B 22.69
Honeywell (HON) United States $126.444B 21.10
Hitachi (HTHIY) Japan $64.734B 7.16
3M (MMM) United States $52.459B 10.44
Mitsubishi (MSBHF) Japan $35.433B 9.84
Marubeni (MARUY) Japan $26.877B 7.82
Sumitomo (SSUMY) Japan $26.541B 7.46
Ck Hutchison Holdings (CKHUY) Hong Kong, SAR China $19.840B 0.00
Markel Group (MKL) United States $18.636B 17.09
Carlisle (CSL) United States $13.357B 16.78
Bunzl (BZLFY) United Kingdom $12.320B 0.00
Jardine Matheson Holdings (JMHLY) China $11.607B 0.00
ITT (ITT) United States $8.860B 20.92
Icahn Enterprises (IEP) United States $6.786B 0.00
China Merchants Holdings (CMHHY) Hong Kong, SAR China $6.084B 0.00
Federal Signal (FSS) United States $4.285B 29.18
IAC (IAC) United States $3.885B 0.00
Atlanta Braves Holdings (BATRA) United States $2.492B 0.00
Griffon (GFF) United States $2.426B 10.22
Atlanta Braves Holdings (BATRK) $1.820B 0.00
Vector Group (VGR) United States $1.672B 9.08
First Pacific (FPAFY) Hong Kong, SAR China $1.615B 0.00
Steel Partners Holdings LP (SPLP) United States $0.822B 5.15
Barloworld (BRRAY) South Africa $0.796B 0.00
Lsb Industries (LXU) United States $0.632B 6.59
National Presto Industries (NPK) United States $0.547B 23.34
Falcon's Beyond Global (FBYD) United States $0.106B 0.00
Live Ventures (LIVE) United States $0.086B 8.97
INNOVATE (VATE) United States $0.080B 0.00
Scully Royalty (SRL) China $0.062B 0.00
Great Elm (GEG) United States $0.061B 0.00
Alpine 4 Holdings (ALPP) United States $0.025B 0.00
La Rosa Holdings (LRHC) $0.023B 0.00
Paranovus Entertainment Technology (PAVS) China $0.017B 0.00
Star Equity Holdings (STRR) United States $0.017B 7.00
Jet.AI (JTAI) United States $0.013B 21.71
Alset (AEI) United States $0.012B 0.00
Addentax Group (ATXG) China $0.005B 0.00
Fresh2 Group (FRES) China $0.004B 0.00
Antelope Enterprise Holdings L (AEHL) China $0.002B 0.00
Aquaron Acquisition (JXJT) China $0.001B 0.00
TROOPS (TROO) Hong Kong, SAR China $0.000B 0.00